createdAt,value
2022-12-27T00:02:16.946Z,21.47
2022-12-27T00:05:11.131Z,21.80
2022-12-27T00:08:32.362Z,21.13
2022-12-27T00:11:59.765Z,21.90
2022-12-27T00:14:52.587Z,21.30
2022-12-27T00:17:52.753Z,20.43
2022-12-27T00:20:40.655Z,20.77
2022-12-27T00:24:01.154Z,17.43
2022-12-27T00:26:42.477Z,18.90
2022-12-27T00:29:56.120Z,17.50
2022-12-27T00:36:56.138Z,17.40
2022-12-27T00:43:28.143Z,16.60
2022-12-27T00:46:22.239Z,17.53
2022-12-27T00:52:34.084Z,17.90
2022-12-27T00:55:20.749Z,19.40
2022-12-27T00:58:07.838Z,17.93
2022-12-27T01:00:56.095Z,18.93
2022-12-27T01:03:40.139Z,19.23
2022-12-27T01:06:34.744Z,19.10
2022-12-27T01:09:30.749Z,19.70
2022-12-27T01:15:15.968Z,18.50
2022-12-27T01:18:40.699Z,19.03
2022-12-27T01:21:33.725Z,19.40
2022-12-27T01:24:19.522Z,19.53
2022-12-27T01:27:26.659Z,19.73
2022-12-27T01:30:15.168Z,17.93
2022-12-27T01:33:15.727Z,19.10
2022-12-27T01:36:36.105Z,18.63
2022-12-27T01:39:19.094Z,19.87
2022-12-27T01:42:10.739Z,18.70
2022-12-27T01:45:44.182Z,18.07
2022-12-27T01:48:52.089Z,16.73
2022-12-27T01:51:45.032Z,16.13
2022-12-27T01:57:44.299Z,16.07
2022-12-27T02:00:50.961Z,16.43
2022-12-27T02:04:21.674Z,16.00
2022-12-27T02:07:24.188Z,16.33
2022-12-27T02:10:23.300Z,15.90
2022-12-27T02:20:19.078Z,15.97
2022-12-27T02:23:49.529Z,15.57
2022-12-27T02:27:10.401Z,17.07
2022-12-27T02:30:40.490Z,15.93
2022-12-27T02:41:12.022Z,15.90
2022-12-27T02:44:22.039Z,16.70
2022-12-27T02:47:26.945Z,15.70
2022-12-27T02:50:29.908Z,15.53
2022-12-27T02:54:12.689Z,16.30
2022-12-27T02:57:39.967Z,15.60
2022-12-27T03:00:48.333Z,15.60
2022-12-27T03:04:19.054Z,16.37
2022-12-27T03:07:38.320Z,15.93
2022-12-27T03:10:52.952Z,15.53
2022-12-27T03:14:02.564Z,15.73
2022-12-27T03:17:25.447Z,15.80
2022-12-27T03:20:23.316Z,16.27
2022-12-27T03:23:38.146Z,15.97
2022-12-27T03:26:24.903Z,17.03
2022-12-27T03:29:18.835Z,16.97
2022-12-27T03:32:20.992Z,17.97
2022-12-27T03:35:11.730Z,16.53
2022-12-27T03:38:03.645Z,16.03
2022-12-27T03:41:07.255Z,17.80
2022-12-27T03:43:35.845Z,16.40
2022-12-27T03:46:34.936Z,16.30
2022-12-27T03:49:13.936Z,15.87
2022-12-27T03:51:57.748Z,16.33
2022-12-27T03:58:16.689Z,16.10
2022-12-27T04:01:07.618Z,16.20
2022-12-27T04:03:37.789Z,16.77
2022-12-27T04:06:23.610Z,16.87
2022-12-27T04:09:28.680Z,16.53
2022-12-27T04:12:23.760Z,16.10
2022-12-27T04:15:11.040Z,17.40
2022-12-27T04:18:09.564Z,16.07
2022-12-27T04:21:04.610Z,16.80
2022-12-27T04:24:00.548Z,18.17
2022-12-27T04:26:53.624Z,16.17
2022-12-27T04:29:46.387Z,17.67
2022-12-27T04:33:05.418Z,15.73
2022-12-27T04:35:54.741Z,15.63
2022-12-27T04:38:38.189Z,16.93
2022-12-27T04:41:34.161Z,15.63
2022-12-27T04:44:30.958Z,15.87
2022-12-27T04:47:27.474Z,15.00
2022-12-27T04:50:45.716Z,15.70
2022-12-27T04:53:37.181Z,16.20
2022-12-27T04:56:09.909Z,14.97
2022-12-27T04:59:01.410Z,15.37
2022-12-27T05:01:55.444Z,15.70
2022-12-27T05:04:31.277Z,15.93
2022-12-27T05:11:32.465Z,15.33
2022-12-27T05:17:41.022Z,15.37
2022-12-27T05:20:39.859Z,15.97
2022-12-27T05:23:51.302Z,15.23
2022-12-27T05:26:38.336Z,16.27
2022-12-27T05:29:08.585Z,16.80
2022-12-27T05:32:01.007Z,15.10
2022-12-27T05:35:02.138Z,14.80
2022-12-27T05:37:42.628Z,14.93
2022-12-27T05:40:36.731Z,15.50
2022-12-27T05:46:28.904Z,16.37
2022-12-27T05:49:23.422Z,15.43
2022-12-27T05:52:07.229Z,14.60
2022-12-27T05:57:52.267Z,14.57
2022-12-27T06:00:39.913Z,15.93
2022-12-27T06:03:24.601Z,15.00
2022-12-27T06:06:21.718Z,15.17
2022-12-27T06:09:36.193Z,15.83
2022-12-27T06:12:21.423Z,13.70
2022-12-27T06:15:40.107Z,13.90
2022-12-27T06:18:34.400Z,14.47
2022-12-27T06:21:10.479Z,14.77
2022-12-27T06:24:06.462Z,14.87
2022-12-27T06:27:04.553Z,15.33
2022-12-27T06:30:13.226Z,15.10
2022-12-27T06:32:58.430Z,14.90
2022-12-27T06:35:35.321Z,15.13
2022-12-27T06:38:33.389Z,15.27
2022-12-27T06:41:49.827Z,15.10
2022-12-27T06:47:31.974Z,16.37
2022-12-27T07:01:36.685Z,16.50
2022-12-27T07:04:31.245Z,16.07
2022-12-27T07:07:19.603Z,15.80
2022-12-27T07:10:11.046Z,15.93
2022-12-27T07:13:07.855Z,16.00
2022-12-27T07:16:03.436Z,15.20
2022-12-27T07:18:58.843Z,16.33
2022-12-27T07:22:26.409Z,16.20
2022-12-27T07:28:45.893Z,16.03
2022-12-27T07:34:47.719Z,15.40
2022-12-27T07:37:46.260Z,15.60
2022-12-27T07:40:40.175Z,15.73
2022-12-27T07:43:27.963Z,15.43
2022-12-27T07:49:48.992Z,16.60
2022-12-27T07:52:59.597Z,14.83
2022-12-27T07:56:12.471Z,15.00
2022-12-27T07:59:01.174Z,15.10
2022-12-27T08:02:04.805Z,15.00
2022-12-27T08:05:05.968Z,15.00
2022-12-27T08:08:02.297Z,15.53
2022-12-27T08:10:51.440Z,16.83
2022-12-27T08:13:30.391Z,16.90
2022-12-27T08:16:45.954Z,16.17
2022-12-27T08:22:51.674Z,16.40
2022-12-27T08:25:44.793Z,16.53
2022-12-27T08:28:35.764Z,17.30
2022-12-27T08:31:29.350Z,16.37
2022-12-27T08:34:19.742Z,15.80
2022-12-27T08:37:21.924Z,16.90
2022-12-27T08:40:13.548Z,16.03
2022-12-27T08:43:07.642Z,15.90
2022-12-27T08:46:24.823Z,16.63
2022-12-27T08:52:28.017Z,16.50
2022-12-27T08:55:33.899Z,16.93
2022-12-27T08:58:32.420Z,16.63
2022-12-27T09:01:33.260Z,15.73
2022-12-27T09:04:31.093Z,15.33
2022-12-27T09:07:57.484Z,16.93
2022-12-27T09:14:04.924Z,16.30
2022-12-27T09:16:44.775Z,17.37
2022-12-27T09:19:28.997Z,16.87
2022-12-27T09:22:25.050Z,16.77
2022-12-27T09:25:08.662Z,17.20
2022-12-27T09:28:23.822Z,16.77
2022-12-27T09:31:16.910Z,16.77
2022-12-27T09:34:09.648Z,16.60
2022-12-27T09:36:55.542Z,16.50
2022-12-27T09:40:01.066Z,16.00
2022-12-27T09:43:22.288Z,15.67
2022-12-27T09:46:40.750Z,16.20
2022-12-27T09:49:53.859Z,15.90
2022-12-27T09:52:56.735Z,16.17
2022-12-27T09:56:20.695Z,16.20
2022-12-27T09:59:18.804Z,16.50
2022-12-27T10:02:25.113Z,16.30
2022-12-27T10:06:00.837Z,15.33
2022-12-27T10:08:47.875Z,15.50
2022-12-27T10:11:38.707Z,16.40
2022-12-27T10:14:33.407Z,16.00
2022-12-27T10:17:15.593Z,15.10
2022-12-27T10:20:05.454Z,15.80
2022-12-27T10:23:18.357Z,15.90
2022-12-27T10:25:53.551Z,15.33
2022-12-27T10:28:27.874Z,15.97
2022-12-27T10:30:56.243Z,15.80
2022-12-27T10:33:28.724Z,16.17
2022-12-27T10:39:16.348Z,15.67
2022-12-27T10:42:24.731Z,14.67
2022-12-27T10:45:00.474Z,15.53
2022-12-27T10:51:12.732Z,16.00
2022-12-27T10:54:09.597Z,15.63
2022-12-27T10:56:47.122Z,15.97
2022-12-27T10:59:17.841Z,15.53
2022-12-27T11:01:49.918Z,15.73
2022-12-27T11:04:25.602Z,15.00
2022-12-27T11:15:21.975Z,16.17
2022-12-27T11:18:17.247Z,15.80
2022-12-27T11:21:53.077Z,16.40
2022-12-27T11:28:01.618Z,14.97
2022-12-27T11:31:36.670Z,15.50
2022-12-27T11:43:31.371Z,15.90
2022-12-27T11:47:06.070Z,17.50
2022-12-27T11:50:19.963Z,15.20
2022-12-27T11:53:59.891Z,15.97
2022-12-27T11:56:30.820Z,15.80
2022-12-27T11:59:43.403Z,15.50
2022-12-27T12:02:55.093Z,16.00
2022-12-27T12:05:51.706Z,15.50
2022-12-27T12:08:50.242Z,15.80
2022-12-27T12:11:31.002Z,17.13
2022-12-27T12:14:26.237Z,16.30
2022-12-27T12:17:20.287Z,15.87
2022-12-27T12:20:17.557Z,15.77
2022-12-27T12:23:00.143Z,15.90
2022-12-27T12:25:48.538Z,16.33
2022-12-27T12:29:05.197Z,16.30
2022-12-27T12:31:56.733Z,16.27
2022-12-27T12:34:43.275Z,16.33
2022-12-27T12:37:27.124Z,15.77
2022-12-27T12:40:21.923Z,15.50
2022-12-27T12:42:59.146Z,15.80
2022-12-27T12:45:48.345Z,15.77
2022-12-27T12:48:50.899Z,15.77
2022-12-27T12:51:42.056Z,15.97
2022-12-27T12:54:30.545Z,15.50
2022-12-27T12:57:09.307Z,17.60
2022-12-27T13:00:09.451Z,16.03
2022-12-27T13:03:25.119Z,15.60
2022-12-27T13:06:02.316Z,16.17
2022-12-27T13:08:34.908Z,16.97
2022-12-27T13:11:18.265Z,15.37
2022-12-27T13:14:03.186Z,16.20
2022-12-27T13:16:46.933Z,16.40
2022-12-27T13:19:39.229Z,15.70
2022-12-27T13:22:17.241Z,16.20
2022-12-27T13:25:05.338Z,16.70
2022-12-27T13:27:40.579Z,15.10
2022-12-27T13:30:22.336Z,16.53
2022-12-27T13:33:23.036Z,16.80
2022-12-27T13:36:08.103Z,15.67
2022-12-27T13:39:11.308Z,16.47
2022-12-27T13:42:00.915Z,16.70
2022-12-27T13:44:40.028Z,17.93
2022-12-27T13:47:36.427Z,16.30
2022-12-27T13:50:47.737Z,16.63
2022-12-27T13:53:59.998Z,16.90
2022-12-27T13:59:42.342Z,17.70
2022-12-27T14:03:04.615Z,17.27
2022-12-27T14:05:59.305Z,16.17
2022-12-27T14:08:43.328Z,16.20
2022-12-27T14:12:24.577Z,17.37
2022-12-27T14:14:58.730Z,15.80
2022-12-27T14:17:34.165Z,16.10
2022-12-27T14:20:18.791Z,16.27
2022-12-27T14:23:17.527Z,16.30
2022-12-27T14:26:20.483Z,17.37
2022-12-27T14:29:43.403Z,15.70
2022-12-27T14:32:57.558Z,15.80
2022-12-27T14:36:07.941Z,15.03
2022-12-27T14:39:01.485Z,15.83
2022-12-27T14:41:53.452Z,16.10
2022-12-27T14:47:44.488Z,15.30
2022-12-27T14:50:51.044Z,15.63
2022-12-27T14:54:13.495Z,16.13
2022-12-27T14:56:58.985Z,15.97
2022-12-27T14:59:37.932Z,15.77
2022-12-27T15:03:05.471Z,16.40
2022-12-27T15:06:04.575Z,16.40
2022-12-27T15:08:51.785Z,15.77
2022-12-27T15:11:35.330Z,16.20
2022-12-27T15:14:19.719Z,15.20
2022-12-27T15:16:57.902Z,15.73
2022-12-27T15:19:56.533Z,16.47
2022-12-27T15:22:44.461Z,15.47
2022-12-27T15:25:24.156Z,16.23
2022-12-27T15:28:02.292Z,15.23
2022-12-27T15:30:45.857Z,16.20
2022-12-27T15:33:22.287Z,16.37
2022-12-27T15:35:57.148Z,17.20
2022-12-27T15:54:24.443Z,16.10
2022-12-27T16:01:26.393Z,17.53
2022-12-27T16:04:41.464Z,17.30
2022-12-27T16:07:49.612Z,16.53
2022-12-27T16:10:52.239Z,16.63
2022-12-27T16:13:50.613Z,19.43
2022-12-27T16:24:48.016Z,19.77
2022-12-27T16:27:57.280Z,18.83
2022-12-27T16:30:51.716Z,17.27
2022-12-27T16:33:47.246Z,18.00
2022-12-27T16:36:51.228Z,21.70
2022-12-27T16:43:53.635Z,16.20
2022-12-27T16:47:13.070Z,16.70
2022-12-27T16:58:26.368Z,17.10
2022-12-27T17:01:36.010Z,16.13
2022-12-27T17:04:57.802Z,18.37
2022-12-27T17:12:31.703Z,18.23
2022-12-27T17:15:31.777Z,19.20
2022-12-27T17:19:13.772Z,19.47
2022-12-27T17:21:58.025Z,21.80
2022-12-27T17:24:39.120Z,18.13
2022-12-27T17:30:35.876Z,19.07
2022-12-27T17:33:49.586Z,17.40
2022-12-27T17:37:20.025Z,17.33
2022-12-27T17:40:30.535Z,19.07
2022-12-27T17:43:51.985Z,18.73
2022-12-27T17:46:31.804Z,17.33
2022-12-27T18:01:19.991Z,16.60
2022-12-27T18:04:09.086Z,16.67
2022-12-27T18:06:46.263Z,17.27
2022-12-27T18:10:16.426Z,17.30
2022-12-27T18:13:29.534Z,24.47
2022-12-27T18:20:53.879Z,42.00
2022-12-27T18:23:46.593Z,32.90
2022-12-27T18:26:37.868Z,22.93
2022-12-27T18:29:24.823Z,23.47
2022-12-27T19:15:54.917Z,20.37
2022-12-27T19:18:38.430Z,20.77
2022-12-27T19:21:19.519Z,18.73
2022-12-27T19:23:55.803Z,18.67
2022-12-27T19:27:12.531Z,18.43
2022-12-27T19:30:18.260Z,19.50
2022-12-27T19:36:48.029Z,19.27
2022-12-27T19:39:58.665Z,18.03
2022-12-27T19:42:46.354Z,21.57
2022-12-27T19:45:37.571Z,21.70
2022-12-27T19:49:23.659Z,27.43
2022-12-27T19:51:51.147Z,25.00
2022-12-27T19:55:01.827Z,33.37
2022-12-27T20:01:25.194Z,30.03
2022-12-27T20:04:08.838Z,28.40
2022-12-27T20:14:28.154Z,19.83
2022-12-27T20:17:41.147Z,21.13
2022-12-27T20:21:06.514Z,23.53
2022-12-27T20:32:50.379Z,17.30
2022-12-27T20:35:59.056Z,20.40
2022-12-27T20:39:14.478Z,18.87
2022-12-27T20:42:12.334Z,18.10
2022-12-27T20:45:13.759Z,18.47
2022-12-27T20:47:50.243Z,18.10
2022-12-27T20:50:56.037Z,17.57
2022-12-27T20:57:02.387Z,18.40
2022-12-27T20:59:41.600Z,17.23
2022-12-27T21:02:54.253Z,18.73
2022-12-27T21:05:56.178Z,20.70
2022-12-27T21:08:57.720Z,18.97
2022-12-27T21:11:58.788Z,19.63
2022-12-27T21:14:40.090Z,17.63
2022-12-27T21:17:12.858Z,17.83
2022-12-27T21:19:42.983Z,17.20
2022-12-27T21:22:49.552Z,17.43
2022-12-27T21:25:38.420Z,18.13
2022-12-27T21:28:22.811Z,18.33
2022-12-27T21:31:15.771Z,17.80
2022-12-27T21:34:06.667Z,17.50
2022-12-27T21:37:02.245Z,17.73
2022-12-27T21:39:47.971Z,18.00
2022-12-27T21:42:34.084Z,18.40
2022-12-27T21:45:29.337Z,18.30
2022-12-27T21:48:19.384Z,18.20
2022-12-27T21:51:12.646Z,19.70
2022-12-27T21:54:08.562Z,18.40
2022-12-27T21:56:57.725Z,19.90
2022-12-27T22:02:41.595Z,39.13
2022-12-27T22:06:00.617Z,22.00
2022-12-27T22:08:57.752Z,22.13
2022-12-27T22:15:02.142Z,21.17
2022-12-27T22:17:48.196Z,22.10
2022-12-27T22:20:46.764Z,21.23
2022-12-27T22:23:40.670Z,21.37
2022-12-27T22:26:54.767Z,19.17
2022-12-27T22:32:52.466Z,18.70
2022-12-27T22:38:40.653Z,19.30
2022-12-27T22:41:21.672Z,19.50
2022-12-27T22:43:55.472Z,19.47
2022-12-27T22:46:25.805Z,18.50
2022-12-27T22:49:04.500Z,18.57
2022-12-27T22:51:45.037Z,19.07
2022-12-27T22:55:04.547Z,18.90
2022-12-27T22:57:54.184Z,19.80
2022-12-27T23:00:31.732Z,18.90
2022-12-27T23:03:12.875Z,19.50
2022-12-27T23:06:02.526Z,22.20
2022-12-27T23:08:34.668Z,22.23
2022-12-27T23:11:13.902Z,21.50
2022-12-27T23:13:55.837Z,21.93
2022-12-27T23:19:46.221Z,21.30
2022-12-27T23:22:33.852Z,21.27
2022-12-27T23:25:25.611Z,19.43
2022-12-27T23:28:06.380Z,20.33
2022-12-27T23:30:43.112Z,25.87
2022-12-27T23:33:18.453Z,20.57
2022-12-27T23:36:16.562Z,20.03
2022-12-27T23:38:54.860Z,19.83
2022-12-27T23:41:47.222Z,18.47
2022-12-27T23:44:19.756Z,20.13
2022-12-27T23:47:08.562Z,18.27
2022-12-27T23:49:47.544Z,19.30
2022-12-27T23:52:32.741Z,20.77
2022-12-27T23:55:07.499Z,19.33
2022-12-27T23:57:44.554Z,19.13
